Time;durP1;ratioP1;P1;durP2;ratioP2;P2;SDS_P1;SDS_P2;PMS_P1;PMS_P2;Temp;Humidity;BMP_temperature;BMP_pressure;BME280_temperature;BME280_humidity;BME280_pressure;Samples;Min_cycle;Max_cycle;Signal;HPM_P1;HPM_P2
2024/01/07 00:01:03;;;;;;;11.73;7.27;;;0.20;99.90;-0.20;100418.00;;;;4911773;28;120475;-70
2024/01/07 00:03:31;;;;;;;11.93;7.37;;;0.20;99.90;-0.20;100416.00;;;;4915020;28;92868;-70
2024/01/07 00:05:57;;;;;;;10.80;7.00;;;0.20;99.90;-0.20;100409.00;;;;4918266;28;92936;-70
2024/01/07 00:08:22;;;;;;;11.70;8.10;;;0.10;99.90;-0.20;100419.00;;;;4911328;28;122820;-68
2024/01/07 00:10:48;;;;;;;12.30;8.50;;;0.10;99.90;-0.20;100422.00;;;;4907149;28;121527;-70
2024/01/07 00:13:14;;;;;;;10.00;6.60;;;0.20;99.90;-0.20;100408.00;;;;4911388;28;110772;-71
2024/01/07 00:15:39;;;;;;;11.77;7.87;;;0.00;99.90;-0.20;100422.00;;;;4911389;28;92862;-70
2024/01/07 00:18:05;;;;;;;14.47;8.07;;;0.10;99.90;-0.30;100418.00;;;;4904251;28;122590;-70
2024/01/07 00:20:31;;;;;;;13.80;7.97;;;0.10;99.90;-0.30;100431.00;;;;4912402;28;112815;-70
2024/01/07 00:22:56;;;;;;;13.50;7.50;;;0.00;99.90;-0.30;100423.00;;;;4904925;28;109997;-70
2024/01/07 00:25:22;;;;;;;15.23;7.43;;;0.00;99.90;-0.30;100418.00;;;;4908221;28;92532;-70
2024/01/07 00:27:48;;;;;;;13.73;6.80;;;0.10;99.90;-0.30;100427.00;;;;4911143;28;92889;-69
2024/01/07 00:30:13;;;;;;;14.57;8.57;;;0.10;99.90;-0.30;100421.00;;;;4905115;28;121594;-69
2024/01/07 00:32:39;;;;;;;12.37;6.80;;;0.10;99.90;-0.30;100433.00;;;;4906774;28;92828;-68
2024/01/07 00:35:05;;;;;;;15.50;7.27;;;0.00;99.90;-0.30;100441.00;;;;4909896;28;108893;-69
2024/01/07 00:37:31;;;;;;;17.97;8.10;;;0.20;99.90;-0.30;100425.00;;;;4905107;28;94377;-70
2024/01/07 00:39:56;;;;;;;10.93;7.67;;;0.00;99.90;-0.30;100448.00;;;;4907144;28;93281;-69
2024/01/07 00:42:22;;;;;;;10.43;7.47;;;0.00;99.90;-0.30;100437.00;;;;4902930;28;109321;-71
2024/01/07 00:44:48;;;;;;;11.93;8.73;;;0.00;99.90;-0.30;100434.00;;;;4902750;28;106334;-69
2024/01/07 00:47:13;;;;;;;9.47;7.60;;;0.00;99.90;-0.40;100445.00;;;;4920045;28;122364;-69
2024/01/07 00:49:40;;;;;;;8.63;7.00;;;0.10;99.90;-0.40;100461.00;;;;4908454;28;121499;-70
2024/01/07 00:52:06;;;;;;;11.53;7.63;;;1.00;99.90;-0.40;100453.00;;;;4904242;28;93160;-69
2024/01/07 00:54:31;;;;;;;14.73;8.37;;;0.00;99.90;-0.40;100451.00;;;;4903718;28;109420;-68
2024/01/07 00:56:57;;;;;;;13.10;8.07;;;-0.10;99.90;-0.40;100456.00;;;;4901964;28;93955;-69
2024/01/07 00:59:23;;;;;;;7.90;5.57;;;-0.10;99.90;-0.40;100463.00;;;;4909927;28;92738;-68
2024/01/07 01:01:51;;;;;;;15.07;7.37;;;0.00;99.90;-0.40;100465.00;;;;4908993;28;92785;-68
2024/01/07 01:04:17;;;;;;;13.13;8.23;;;0.00;99.90;-0.50;100458.00;;;;4909013;28;93057;-68
2024/01/07 01:06:42;;;;;;;12.97;7.57;;;0.20;99.90;-0.50;100451.00;;;;4899753;28;123855;-68
2024/01/07 01:09:08;;;;;;;12.97;7.43;;;-0.10;99.90;-0.50;100472.00;;;;4901823;28;122538;-69
2024/01/07 01:11:34;;;;;;;14.93;6.37;;;-0.10;99.90;-0.50;100471.00;;;;4907790;28;110615;-70
2024/01/07 01:13:59;;;;;;;9.83;5.83;;;0.00;99.90;-0.50;100466.00;;;;4905251;28;108596;-68
2024/01/07 01:16:25;;;;;;;12.23;6.93;;;-0.10;99.90;-0.50;100475.00;;;;4900378;28;121321;-69
2024/01/07 01:18:51;;;;;;;6.83;5.97;;;-0.10;99.90;-0.50;100476.00;;;;4903412;28;114817;-68
2024/01/07 01:21:16;;;;;;;10.77;6.70;;;-0.10;99.90;-0.50;100482.00;;;;4906173;28;110419;-69
2024/01/07 01:23:43;;;;;;;10.70;7.07;;;-0.10;99.90;-0.50;100484.00;;;;4906626;28;108012;-71
2024/01/07 01:26:09;;;;;;;14.07;7.00;;;-0.10;99.90;-0.60;100483.00;;;;4905298;28;94429;-69
2024/01/07 01:28:34;;;;;;;13.17;6.27;;;-0.10;99.90;-0.60;100483.00;;;;4906340;28;121167;-70
2024/01/07 01:31:00;;;;;;;10.63;6.67;;;-0.20;99.90;-0.60;100481.00;;;;4909592;28;110349;-69
2024/01/07 01:33:26;;;;;;;8.37;6.10;;;-0.20;99.90;-0.60;100489.00;;;;4903879;28;108928;-69
2024/01/07 01:35:51;;;;;;;7.83;5.40;;;-0.20;99.90;-0.50;100496.00;;;;4904780;28;118615;-68
2024/01/07 01:38:17;;;;;;;11.13;4.90;;;-0.10;99.90;-0.50;100505.00;;;;4904785;28;122059;-69
2024/01/07 01:40:42;;;;;;;7.27;4.70;;;-0.10;99.90;-0.50;100497.00;;;;4906692;28;110393;-69
2024/01/07 01:43:08;;;;;;;12.97;5.33;;;-0.20;99.90;-0.50;100494.00;;;;4905649;28;108508;-68
2024/01/07 01:45:34;;;;;;;8.23;4.80;;;-0.20;99.90;-0.50;100508.00;;;;4900791;28;122302;-68
2024/01/07 01:48:00;;;;;;;8.77;5.17;;;-0.20;99.90;-0.50;100501.00;;;;4906199;28;121166;-68
2024/01/07 01:50:26;;;;;;;13.07;7.13;;;-0.20;99.90;-0.50;100511.00;;;;4902419;28;92908;-70
2024/01/07 01:52:52;;;;;;;6.43;4.90;;;-0.20;99.90;-0.50;100502.00;;;;4903580;28;107623;-69
2024/01/07 01:55:19;;;;;;;6.90;4.33;;;-0.10;99.90;-0.60;100502.00;;;;4910796;28;105797;-68
2024/01/07 01:57:47;;;;;;;12.03;5.70;;;-0.10;99.90;-0.60;100504.00;;;;4908274;28;124354;-69
2024/01/07 02:00:13;;;;;;;8.87;4.77;;;-0.10;99.90;-0.60;100507.00;;;;4904256;28;109183;-68
2024/01/07 02:02:39;;;;;;;5.10;4.57;;;-0.20;99.90;-0.60;100505.00;;;;4912422;28;93052;-72
2024/01/07 02:05:05;;;;;;;9.83;5.43;;;-0.20;99.90;-0.60;100514.00;;;;4922323;28;94886;-70
2024/01/07 02:07:31;;;;;;;7.63;5.13;;;-0.20;99.90;-0.60;100509.00;;;;4910985;28;98093;-69
2024/01/07 02:09:57;;;;;;;7.00;5.07;;;-0.20;99.90;-0.60;100514.00;;;;4911911;28;110411;-68
2024/01/07 02:12:23;;;;;;;6.10;4.50;;;-0.20;99.90;-0.60;100506.00;;;;4927633;28;102310;-69
2024/01/07 02:14:54;;;;;;;8.23;4.63;;;-0.20;99.90;-0.60;100506.00;;;;4927367;28;120882;-68
2024/01/07 02:17:20;;;;;;;5.30;3.60;;;-0.20;99.90;-0.60;100510.00;;;;4909919;28;123372;-69
2024/01/07 02:19:46;;;;;;;8.10;4.03;;;-0.20;99.90;-0.60;100505.00;;;;4910050;28;96070;-70
2024/01/07 02:22:12;;;;;;;8.37;4.73;;;-0.30;99.90;-0.60;100516.00;;;;4892177;28;109143;-70
2024/01/07 02:24:37;;;;;;;7.27;4.53;;;-0.30;99.90;-0.60;100509.00;;;;4918049;28;123934;-71
2024/01/07 02:27:03;;;;;;;9.90;4.60;;;-0.30;99.90;-0.60;100519.00;;;;4899302;28;120379;-70
2024/01/07 02:29:29;;;;;;;8.40;4.90;;;-0.20;99.90;-0.60;100523.00;;;;4916669;28;92784;-69
2024/01/07 02:31:55;;;;;;;7.27;4.33;;;-0.20;99.90;-0.60;100528.00;;;;4909640;28;92944;-69
2024/01/07 02:34:20;;;;;;;7.30;4.73;;;-0.20;99.90;-0.70;100529.00;;;;4911816;28;106914;-70
2024/01/07 02:36:46;;;;;;;9.63;4.80;;;-0.30;99.90;-0.70;100523.00;;;;4911582;28;92864;-70
2024/01/07 02:39:12;;;;;;;9.23;4.10;;;-0.20;99.90;-0.70;100526.00;;;;4910399;28;109657;-69
2024/01/07 02:41:37;;;;;;;7.70;4.50;;;-0.30;99.90;-0.70;100529.00;;;;4921030;28;92830;-69
2024/01/07 02:44:03;;;;;;;9.40;4.77;;;-0.30;99.90;-0.70;100531.00;;;;4910817;28;122381;-69
2024/01/07 02:46:31;;;;;;;7.57;3.90;;;0.50;99.90;-0.70;100536.00;;;;4910017;28;105774;-70
2024/01/07 02:48:57;;;;;;;8.43;4.63;;;-0.30;99.90;-0.70;100531.00;;;;4915153;28;109687;-68
2024/01/07 02:51:22;;;;;;;5.00;4.23;;;-0.40;99.90;-0.70;100528.00;;;;4912682;28;107297;-70
2024/01/07 02:53:48;;;;;;;8.00;4.40;;;-0.30;99.90;-0.70;100527.00;;;;4909230;28;123851;-69
2024/01/07 02:56:14;;;;;;;6.90;4.80;;;-1.20;99.90;-0.70;100526.00;;;;4911539;28;114246;-69
2024/01/07 02:58:39;;;;;;;5.47;4.03;;;-0.20;99.90;-0.70;100539.00;;;;4911192;28;93231;-69
2024/01/07 03:01:11;;;;;;;7.90;3.77;;;-0.40;99.90;-0.70;100543.00;;;;4920012;28;109993;-70
2024/01/07 03:03:37;;;;;;;5.90;4.03;;;-0.40;99.90;-0.70;100548.00;;;;4912315;28;93246;-69
2024/01/07 03:06:03;;;;;;;5.63;3.53;;;0.30;99.90;-0.70;100551.00;;;;4908011;28;93649;-69
2024/01/07 03:08:29;;;;;;;8.40;5.07;;;-0.40;99.90;-0.70;100547.00;;;;4912051;28;99581;-69
2024/01/07 03:10:55;;;;;;;6.90;3.97;;;-0.40;99.90;-0.70;100548.00;;;;4914053;28;108787;-69
2024/01/07 03:13:20;;;;;;;5.43;3.80;;;-0.40;99.90;-0.70;100550.00;;;;4909168;28;121676;-70
2024/01/07 03:15:46;;;;;;;5.27;3.53;;;-0.30;99.90;-0.70;100552.00;;;;4904655;28;123306;-69
2024/01/07 03:18:12;;;;;;;8.27;4.97;;;-0.30;99.90;-0.70;100550.00;;;;4913262;28;93675;-69
2024/01/07 03:20:37;;;;;;;13.93;4.30;;;-0.30;99.90;-0.70;100559.00;;;;4918093;28;108121;-70
2024/01/07 03:23:06;;;;;;;7.73;3.60;;;-0.30;99.90;-0.70;100552.00;;;;4906748;28;121907;-69
2024/01/07 03:25:31;;;;;;;6.27;3.77;;;-0.40;99.90;-0.70;100555.00;;;;4907148;28;122477;-68
2024/01/07 03:27:57;;;;;;;8.67;3.97;;;-0.40;99.90;-0.70;100571.00;;;;4905954;28;110500;-69
2024/01/07 03:30:23;;;;;;;9.00;3.93;;;-0.40;99.90;-0.80;100564.00;;;;4907458;28;109091;-69
2024/01/07 03:32:48;;;;;;;7.00;3.53;;;-0.40;99.90;-0.80;100566.00;;;;4908794;28;107206;-69
2024/01/07 03:35:14;;;;;;;9.87;3.63;;;-0.20;99.90;-0.70;100559.00;;;;4916066;28;122657;-69
2024/01/07 03:37:40;;;;;;;8.97;3.77;;;-0.40;99.90;-0.80;100568.00;;;;4914608;28;110408;-69
2024/01/07 03:40:13;;;;;;;4.17;3.47;;;-0.40;99.90;-0.80;100571.00;;;;4910913;28;108054;-68
2024/01/07 03:42:38;;;;;;;3.17;2.87;;;-0.40;99.90;-0.80;100577.00;;;;4912993;28;121996;-70
2024/01/07 03:45:05;;;;;;;5.93;3.83;;;-0.40;99.90;-0.80;100572.00;;;;4905160;28;93863;-72
2024/01/07 03:47:31;;;;;;;4.90;3.20;;;0.00;99.90;-0.80;100579.00;;;;4913101;28;92880;-71
2024/01/07 03:49:57;;;;;;;7.13;3.50;;;-0.40;99.90;-0.80;100571.00;;;;4910712;28;92066;-71
2024/01/07 03:52:22;;;;;;;7.60;3.70;;;-0.40;99.90;-0.80;100580.00;;;;4907588;28;121696;-71
2024/01/07 03:54:48;;;;;;;4.83;3.33;;;-0.50;99.90;-0.90;100580.00;;;;4911138;28;108307;-72
2024/01/07 03:57:14;;;;;;;5.63;3.77;;;-0.40;99.90;-0.90;100599.00;;;;4919811;28;110232;-69
2024/01/07 03:59:39;;;;;;;3.77;2.83;;;-0.50;99.90;-0.90;100583.00;;;;4908480;28;92998;-70
2024/01/07 04:02:06;;;;;;;5.60;3.63;;;-0.50;99.90;-0.90;100582.00;;;;4910628;28;121609;-72
2024/01/07 04:04:31;;;;;;;5.40;4.10;;;-0.50;99.90;-0.90;100591.00;;;;4913225;28;122203;-72
2024/01/07 04:06:57;;;;;;;4.73;2.93;;;-0.50;99.90;-0.90;100588.00;;;;4914908;28;93114;-72
2024/01/07 04:09:23;;;;;;;5.43;3.13;;;-0.50;99.90;-0.90;100590.00;;;;4912131;28;93175;-70
2024/01/07 04:11:49;;;;;;;5.50;3.77;;;-0.50;99.90;-0.90;100578.00;;;;4912122;28;113245;-70
2024/01/07 04:14:17;;;;;;;3.60;2.97;;;-0.60;99.90;-1.00;100586.00;;;;4908072;28;92824;-72
2024/01/07 04:16:43;;;;;;;5.17;3.77;;;-0.50;99.90;-1.00;100581.00;;;;4917008;28;110386;-70
2024/01/07 04:19:08;;;;;;;3.23;2.93;;;-0.60;99.90;-1.00;100595.00;;;;4909969;28;92958;-71
2024/01/07 04:21:35;;;;;;;5.27;3.20;;;-0.60;99.90;-1.00;100597.00;;;;4912126;28;120349;-70
2024/01/07 04:24:01;;;;;;;4.17;3.23;;;-0.70;99.90;-1.00;100596.00;;;;4909464;28;93128;-70
2024/01/07 04:26:27;;;;;;;3.80;2.80;;;-0.50;99.90;-1.00;100588.00;;;;4909016;28;99381;-71
2024/01/07 04:28:52;;;;;;;7.03;3.33;;;-0.50;99.90;-1.00;100591.00;;;;4908554;28;109249;-70
2024/01/07 04:31:18;;;;;;;6.47;3.83;;;-0.60;99.90;-1.00;100591.00;;;;4913053;28;122845;-70
2024/01/07 04:33:44;;;;;;;6.40;3.40;;;-0.60;99.90;-1.00;100597.00;;;;4908498;28;114996;-71
2024/01/07 04:36:09;;;;;;;5.97;3.53;;;-0.60;99.90;-1.00;100597.00;;;;4909904;28;110484;-70
2024/01/07 04:38:35;;;;;;;4.13;2.87;;;-0.60;99.90;-1.00;100588.00;;;;4908782;28;108771;-70
2024/01/07 04:41:01;;;;;;;4.77;2.63;;;-0.50;99.90;-1.00;100601.00;;;;4906782;28;93973;-70
2024/01/07 04:43:26;;;;;;;5.47;3.23;;;-0.60;99.90;-1.00;100605.00;;;;4911737;28;94035;-71
2024/01/07 04:45:52;;;;;;;4.53;3.17;;;-0.60;99.90;-1.00;100619.00;;;;4907621;28;109870;-71
2024/01/07 04:48:18;;;;;;;4.83;2.93;;;-0.60;99.90;-1.00;100617.00;;;;4907225;28;107433;-70
2024/01/07 04:50:43;;;;;;;4.87;2.97;;;-0.60;99.90;-1.00;100624.00;;;;4908672;28;120822;-70
2024/01/07 04:53:09;;;;;;;6.67;3.23;;;-0.70;99.90;-1.00;100618.00;;;;4918870;28;121735;-70
2024/01/07 04:55:36;;;;;;;3.97;2.27;;;-0.70;99.90;-1.00;100626.00;;;;4920675;28;93034;-71
2024/01/07 04:58:01;;;;;;;4.70;3.30;;;-0.60;99.90;-1.00;100635.00;;;;4909500;28;98911;-70
2024/01/07 05:00:27;;;;;;;6.13;3.57;;;-0.70;99.90;-1.00;100627.00;;;;4904333;28;104953;-71
2024/01/07 05:02:53;;;;;;;4.67;3.40;;;-0.50;99.90;-1.00;100633.00;;;;4909109;28;93695;-69
2024/01/07 05:05:19;;;;;;;4.30;3.13;;;-0.50;99.90;-1.00;100636.00;;;;4904709;28;110838;-71
2024/01/07 05:07:44;;;;;;;6.60;3.27;;;-0.70;99.90;-1.00;100644.00;;;;4904815;28;108104;-69
2024/01/07 05:10:10;;;;;;;4.53;2.93;;;-0.70;99.90;-1.00;100633.00;;;;4907211;28;123157;-72
2024/01/07 05:12:36;;;;;;;4.30;2.93;;;0.30;99.90;-1.00;100640.00;;;;4915830;28;94648;-70
2024/01/07 05:15:02;;;;;;;5.27;3.17;;;-0.70;99.90;-1.00;100635.00;;;;4913048;28;92945;-71
2024/01/07 05:17:29;;;;;;;2.67;2.47;;;-0.50;99.90;-1.00;100645.00;;;;4907965;28;92937;-71
2024/01/07 05:19:54;;;;;;;5.83;3.23;;;-0.40;99.90;-1.00;100644.00;;;;4916192;28;113954;-69
2024/01/07 05:22:21;;;;;;;7.53;3.60;;;-0.50;99.90;-1.00;100659.00;;;;4908995;28;93240;-69
2024/01/07 05:24:47;;;;;;;4.77;2.47;;;-0.60;99.90;-0.90;100647.00;;;;4912776;28;93213;-69
2024/01/07 05:27:13;;;;;;;4.63;3.03;;;-0.60;99.90;-1.00;100656.00;;;;4909375;28;109036;-71
2024/01/07 05:29:39;;;;;;;3.73;2.70;;;-0.60;99.90;-1.00;100656.00;;;;4907021;28;94031;-71
2024/01/07 05:32:05;;;;;;;4.03;2.77;;;-0.70;99.90;-1.00;100648.00;;;;4916734;28;93666;-69
2024/01/07 05:34:31;;;;;;;3.93;3.00;;;-0.60;99.90;-1.00;100663.00;;;;4908732;28;95309;-69
2024/01/07 05:36:57;;;;;;;8.00;2.90;;;-0.70;99.90;-1.00;100663.00;;;;4908127;28;109404;-70
2024/01/07 05:39:23;;;;;;;4.33;2.80;;;-0.60;99.90;-1.00;100666.00;;;;4907120;28;122353;-70
2024/01/07 05:41:48;;;;;;;3.07;2.60;;;-0.60;99.90;-1.10;100659.00;;;;4910687;28;120829;-69
2024/01/07 05:44:14;;;;;;;3.70;2.47;;;-0.70;99.90;-1.10;100664.00;;;;4902784;28;109888;-70
2024/01/07 05:46:40;;;;;;;4.90;2.50;;;-0.60;99.90;-1.10;100675.00;;;;4909029;28;109037;-69
2024/01/07 05:49:07;;;;;;;10.13;2.93;;;-0.70;99.90;-1.20;100672.00;;;;4915419;28;104346;-70
2024/01/07 05:51:33;;;;;;;3.07;2.30;;;-0.20;99.90;-1.20;100674.00;;;;4908837;28;93429;-70
2024/01/07 05:53:59;;;;;;;5.43;2.67;;;-0.80;99.90;-1.20;100675.00;;;;4909641;28;108793;-72
2024/01/07 05:56:27;;;;;;;3.73;2.30;;;-0.80;99.90;-1.20;100682.00;;;;4907295;28;93004;-70
2024/01/07 05:58:53;;;;;;;4.60;2.60;;;-0.80;99.90;-1.20;100682.00;;;;4908529;28;95155;-71
2024/01/07 06:01:20;;;;;;;2.90;2.60;;;-0.90;99.90;-1.30;100686.00;;;;4913328;28;94636;-71
2024/01/07 06:03:49;;;;;;;2.43;2.23;;;-0.70;99.90;-1.30;100684.00;;;;4919335;28;92994;-70
2024/01/07 06:06:15;;;;;;;4.70;2.87;;;-0.90;99.90;-1.30;100703.00;;;;4907679;28;93839;-69
2024/01/07 06:08:44;;;;;;;2.80;1.97;;;-1.00;99.90;-1.30;100707.00;;;;4911559;28;122603;-69
2024/01/07 06:11:12;;;;;;;8.60;2.87;;;-1.00;99.90;-1.30;100709.00;;;;4906961;28;121736;-69
2024/01/07 06:13:37;;;;;;;1.73;1.63;;;-0.80;99.90;-1.30;100710.00;;;;4906654;28;93023;-71
2024/01/07 06:16:03;;;;;;;2.53;1.80;;;-1.00;99.90;-1.40;100726.00;;;;4912702;28;92177;-69
2024/01/07 06:18:29;;;;;;;1.90;1.67;;;-1.00;99.90;-1.40;100722.00;;;;4909506;28;95226;-71
2024/01/07 06:20:55;;;;;;;3.17;2.00;;;-1.10;99.90;-1.40;100720.00;;;;4906519;28;122559;-70
2024/01/07 06:23:20;;;;;;;4.67;2.53;;;0.10;99.90;-1.40;100731.00;;;;4904843;28;108773;-71
2024/01/07 06:25:46;;;;;;;1.60;1.50;;;-0.90;99.90;-1.50;100719.00;;;;4904122;28;107751;-71
2024/01/07 06:28:12;;;;;;;4.33;2.30;;;-1.10;99.90;-1.50;100728.00;;;;4914352;28;121246;-70
2024/01/07 06:30:37;;;;;;;1.77;1.67;;;-1.00;99.90;-1.60;100733.00;;;;4904858;28;121447;-69
2024/01/07 06:33:05;;;;;;;2.83;2.47;;;-1.20;99.90;-1.60;100728.00;;;;4909531;28;111633;-69
2024/01/07 06:35:30;;;;;;;4.07;2.13;;;-2.00;99.90;-1.50;100743.00;;;;4908964;28;93674;-71
2024/01/07 06:37:56;;;;;;;3.87;2.30;;;-1.10;99.90;-1.50;100740.00;;;;4909253;28;93563;-70
2024/01/07 06:40:22;;;;;;;2.03;1.80;;;-1.20;99.90;-1.60;100733.00;;;;4907964;28;123805;-70
2024/01/07 06:42:48;;;;;;;1.60;1.40;;;-1.10;99.90;-1.60;100736.00;;;;4913667;28;92815;-71
2024/01/07 06:45:15;;;;;;;2.87;1.93;;;-1.20;99.90;-1.70;100740.00;;;;4916209;28;93654;-71
2024/01/07 06:47:41;;;;;;;2.67;1.50;;;-1.20;99.90;-1.70;100742.00;;;;4909533;28;116496;-71
2024/01/07 06:50:07;;;;;;;1.87;1.67;;;-1.20;99.90;-1.70;100743.00;;;;4907687;28;93722;-70
2024/01/07 06:52:33;;;;;;;1.53;1.43;;;-1.20;99.90;-1.70;100741.00;;;;4911702;28;100877;-69
2024/01/07 06:54:59;;;;;;;1.80;1.53;;;-1.30;99.90;-1.70;100754.00;;;;4922872;28;108739;-70
2024/01/07 06:57:24;;;;;;;4.03;1.40;;;-1.20;99.90;-1.70;100747.00;;;;4909359;28;115886;-69
2024/01/07 06:59:50;;;;;;;3.57;1.57;;;-1.30;99.90;-1.70;100746.00;;;;4908815;28;122151;-68
2024/01/07 07:02:15;;;;;;;2.77;1.67;;;-1.20;99.90;-1.70;100754.00;;;;4917289;28;93204;-69
2024/01/07 07:04:41;;;;;;;2.53;1.67;;;-0.60;99.90;-1.70;100758.00;;;;4919184;28;109249;-69
2024/01/07 07:07:07;;;;;;;3.20;1.93;;;-1.30;99.90;-1.70;100758.00;;;;4906258;28;94048;-70
2024/01/07 07:09:34;;;;;;;1.90;1.70;;;-1.30;99.90;-1.70;100761.00;;;;4907600;28;94200;-69
2024/01/07 07:12:00;;;;;;;3.00;1.87;;;-1.30;99.90;-1.80;100769.00;;;;4892555;28;94158;-69
2024/01/07 07:14:25;;;;;;;2.93;1.73;;;-1.40;99.90;-1.80;100781.00;;;;4913874;28;96031;-68
2024/01/07 07:16:51;;;;;;;3.67;2.20;;;-1.30;99.90;-1.80;100788.00;;;;4915114;28;121730;-69
2024/01/07 07:19:17;;;;;;;4.33;2.10;;;-1.40;99.90;-1.70;100797.00;;;;4905845;28;123175;-70
2024/01/07 07:21:44;;;;;;;2.40;2.03;;;-1.30;99.90;-1.80;100799.00;;;;4904254;28;93080;-68
2024/01/07 07:24:10;;;;;;;2.00;1.70;;;-1.40;99.90;-1.80;100790.00;;;;4921397;28;92977;-68
2024/01/07 07:26:40;;;;;;;2.57;1.83;;;-1.40;99.90;-1.80;100798.00;;;;4913799;28;110611;-68
2024/01/07 07:29:07;;;;;;;1.70;1.27;;;-1.40;99.90;-1.80;100789.00;;;;4909099;28;93153;-69
2024/01/07 07:31:32;;;;;;;2.47;1.77;;;-1.40;99.90;-1.80;100794.00;;;;4905432;28;96516;-68
2024/01/07 07:34:08;;;;;;;4.27;1.70;;;-1.40;99.90;-1.80;100805.00;;;;4909702;28;107353;-67
2024/01/07 07:36:34;;;;;;;4.90;3.33;;;-1.40;99.90;-1.80;100799.00;;;;4908174;28;95138;-68
2024/01/07 07:39:00;;;;;;;8.63;5.07;;;-1.40;99.90;-1.90;100804.00;;;;4915716;28;124075;-68
2024/01/07 07:41:25;;;;;;;20.63;9.57;;;-1.40;99.90;-1.90;100806.00;;;;4915721;28;109991;-69
2024/01/07 07:43:51;;;;;;;24.43;11.10;;;-1.40;99.90;-1.90;100803.00;;;;4908215;28;108307;-67
2024/01/07 07:46:17;;;;;;;7.73;5.50;;;-1.50;99.90;-1.90;100810.00;;;;4910668;28;124683;-67
2024/01/07 07:48:42;;;;;;;2.93;2.13;;;-1.50;99.90;-1.90;100820.00;;;;4908551;28;121911;-68
2024/01/07 07:51:08;;;;;;;3.43;1.80;;;-1.50;99.90;-1.90;100821.00;;;;4909123;28;92938;-68
2024/01/07 07:53:34;;;;;;;3.20;1.70;;;-1.50;99.90;-1.90;100825.00;;;;4911521;28;109689;-67
2024/01/07 07:56:01;;;;;;;2.37;1.70;;;-1.40;99.90;-1.90;100836.00;;;;4905470;28;120473;-67
2024/01/07 07:58:26;;;;;;;2.23;1.90;;;-1.50;99.90;-1.90;100835.00;;;;4909474;28;112787;-68
2024/01/07 08:00:52;;;;;;;3.37;1.73;;;-1.50;99.90;-1.90;100844.00;;;;4912877;28;104774;-67
2024/01/07 08:03:18;;;;;;;10.23;8.37;;;-1.40;99.90;-1.90;100846.00;;;;4914091;28;97083;-68
2024/01/07 08:05:43;;;;;;;6.20;4.57;;;-1.50;99.90;-1.90;100843.00;;;;4904152;28;95255;-68
2024/01/07 08:08:09;;;;;;;7.80;7.00;;;-1.50;99.90;-1.80;100848.00;;;;4907164;28;121309;-68
2024/01/07 08:10:35;;;;;;;19.83;14.73;;;-1.40;99.90;-1.80;100856.00;;;;4905114;28;109440;-67
2024/01/07 08:13:01;;;;;;;18.87;16.03;;;-1.40;99.90;-1.90;100864.00;;;;4909019;28;93026;-68
2024/01/07 08:15:26;;;;;;;54.47;47.47;;;-1.40;99.90;-1.90;100855.00;;;;4904426;28;109762;-68
2024/01/07 08:17:52;;;;;;;7.77;6.97;;;-1.50;99.90;-1.90;100867.00;;;;4902595;28;121709;-67
2024/01/07 08:20:19;;;;;;;4.57;4.17;;;-1.50;99.90;-1.90;100864.00;;;;4910613;28;113539;-67
2024/01/07 08:22:45;;;;;;;3.40;3.07;;;-1.40;99.90;-1.90;100861.00;;;;4907524;28;93043;-67
2024/01/07 08:25:11;;;;;;;3.80;3.47;;;-1.50;99.90;-1.80;100867.00;;;;4906346;28;95043;-67
2024/01/07 08:27:37;;;;;;;5.03;4.60;;;-1.40;99.90;-1.80;100865.00;;;;4901455;28;93626;-67
2024/01/07 08:30:03;;;;;;;3.43;3.13;;;-1.40;99.90;-1.80;100869.00;;;;4901781;28;93001;-66
2024/01/07 08:32:29;;;;;;;5.53;4.40;;;-1.40;99.90;-1.70;100870.00;;;;4907032;28;93283;-67
2024/01/07 08:34:55;;;;;;;8.27;5.53;;;-1.30;99.90;-1.70;100880.00;;;;4907607;28;94156;-68
2024/01/07 08:37:20;;;;;;;3.93;3.17;;;-1.40;99.90;-1.70;100875.00;;;;4908979;28;120968;-68
2024/01/07 08:39:46;;;;;;;7.00;5.93;;;-1.40;99.90;-1.70;100890.00;;;;4902851;28;93179;-67
2024/01/07 08:42:12;;;;;;;5.20;4.70;;;-1.30;99.90;-1.70;100884.00;;;;4903901;28;106050;-67
2024/01/07 08:44:39;;;;;;;7.70;6.67;;;-1.30;99.90;-1.80;100882.00;;;;4907098;28;106552;-67
2024/01/07 08:47:05;;;;;;;2.97;2.77;;;-2.50;99.90;-1.80;100896.00;;;;4911172;28;94977;-66
2024/01/07 08:49:33;;;;;;;7.87;4.93;;;-1.30;99.90;-1.90;100904.00;;;;4904409;28;99538;-67
2024/01/07 08:51:59;;;;;;;4.73;2.23;;;-1.40;99.90;-1.90;100895.00;;;;4902395;28;93035;-67
2024/01/07 08:54:25;;;;;;;13.10;7.70;;;-1.50;99.90;-2.00;100912.00;;;;4906078;28;100081;-67
2024/01/07 08:56:51;;;;;;;12.30;8.97;;;-1.50;99.90;-2.10;100910.00;;;;4915193;28;93633;-66
2024/01/07 08:59:16;;;;;;;20.33;11.70;;;-1.70;99.90;-2.10;100927.00;;;;4904410;28;94350;-67
2024/01/07 09:01:42;;;;;;;5.73;4.07;;;-1.60;99.90;-2.10;100913.00;;;;4902570;28;108188;-67
2024/01/07 09:04:08;;;;;;;8.23;6.57;;;-1.70;99.90;-2.10;100909.00;;;;4908137;28;122465;-67
2024/01/07 09:06:33;;;;;;;9.43;6.07;;;-1.70;99.90;-2.10;100914.00;;;;4905131;28;120952;-68
2024/01/07 09:08:59;;;;;;;16.07;10.57;;;-1.70;99.90;-2.20;100911.00;;;;4902172;28;109843;-67
2024/01/07 09:11:24;;;;;;;23.87;13.53;;;-1.70;99.90;-2.20;100915.00;;;;4904526;28;93187;-67
2024/01/07 09:13:51;;;;;;;12.03;7.03;;;-1.70;99.90;-2.20;100919.00;;;;4901451;28;122941;-67
2024/01/07 09:16:16;;;;;;;11.17;7.70;;;-1.70;99.90;-2.20;100921.00;;;;4912749;28;94507;-67
2024/01/07 09:18:44;;;;;;;4.33;3.07;;;-1.80;99.90;-2.20;100919.00;;;;4900532;28;108433;-68
2024/01/07 09:21:10;;;;;;;8.37;5.40;;;-1.70;99.90;-2.20;100941.00;;;;4900924;28;92849;-67
2024/01/07 09:23:38;;;;;;;42.20;25.20;;;-1.70;99.90;-2.20;100925.00;;;;4899887;28;122409;-66
2024/01/07 09:26:04;;;;;;;123.30;56.93;;;-1.70;99.90;-2.10;100924.00;;;;4902078;28;93349;-67
2024/01/07 09:28:29;;;;;;;88.10;40.97;;;-1.70;99.80;-2.10;100924.00;;;;4902400;28;109782;-67
2024/01/07 09:30:55;;;;;;;113.07;67.10;;;-1.70;99.90;-1.90;100932.00;;;;4912787;28;105190;-66
2024/01/07 09:33:23;;;;;;;87.73;60.30;;;-1.10;99.90;-1.70;100940.00;;;;4905144;28;93263;-67
2024/01/07 09:35:50;;;;;;;60.13;38.07;;;-1.40;99.90;-1.50;100931.00;;;;4906711;28;93552;-66
2024/01/07 09:38:16;;;;;;;40.80;27.20;;;-1.20;99.90;-1.40;100940.00;;;;4900855;28;94169;-66
2024/01/07 09:40:42;;;;;;;23.87;21.33;;;-1.10;99.60;-1.30;100942.00;;;;4904785;28;93160;-67
2024/01/07 09:43:08;;;;;;;8.80;6.73;;;-1.00;98.70;-1.30;100937.00;;;;4903049;28;94027;-67
2024/01/07 09:45:36;;;;;;;3.93;3.53;;;-0.80;99.00;-1.30;100939.00;;;;4904362;28;93024;-65
2024/01/07 09:48:02;;;;;;;8.13;6.67;;;-0.80;98.80;-1.20;100941.00;;;;4907410;28;92860;-66
2024/01/07 09:50:28;;;;;;;19.30;17.47;;;-0.80;98.70;-1.10;100933.00;;;;4903480;28;99606;-66
2024/01/07 09:52:58;;;;;;;4.00;3.60;;;-0.80;98.40;-1.00;100954.00;;;;4908385;28;123084;-67
2024/01/07 09:55:38;;;;;;;4.90;2.63;;;0.00;98.10;-1.00;100945.00;;;;4902349;28;92330;-65
2024/01/07 09:58:03;;;;;;;9.83;8.80;;;-0.60;97.70;-1.00;100953.00;;;;4918445;28;93186;-66
2024/01/07 10:00:30;;;;;;;7.60;6.47;;;-0.50;97.60;-0.90;100947.00;;;;4908940;28;108727;-66
2024/01/07 10:02:55;;;;;;;8.63;4.17;;;-0.60;96.90;-0.80;100947.00;;;;4902129;28;94337;-65
2024/01/07 10:05:21;;;;;;;5.23;3.43;;;-0.50;97.30;-0.70;100935.00;;;;4903439;28;122539;-66
2024/01/07 10:07:47;;;;;;;3.17;2.37;;;-0.40;97.70;-0.50;100943.00;;;;4900990;28;110372;-67
2024/01/07 10:10:14;;;;;;;8.23;4.10;;;-0.20;97.70;-0.40;100941.00;;;;4899177;28;109176;-65
2024/01/07 10:12:41;;;;;;;3.93;3.37;;;-0.10;97.50;-0.30;100937.00;;;;4898248;28;103647;-66
2024/01/07 10:15:07;;;;;;;5.57;2.70;;;0.00;97.50;-0.10;100952.00;;;;4900482;28;94568;-67
2024/01/07 10:17:33;;;;;;;10.73;6.70;;;0.20;97.20;0.00;100959.00;;;;4029281;28;10000187;-68
2024/01/07 10:19:58;;;;;;;6.67;5.67;;;0.40;97.30;0.20;100958.00;;;;4902004;28;92333;-66
2024/01/07 10:22:24;;;;;;;2.80;2.50;;;0.50;97.10;0.30;100965.00;;;;4901654;28;100337;-67
2024/01/07 10:24:51;;;;;;;1.50;1.40;;;0.50;96.60;0.30;100958.00;;;;4903890;28;109094;-68
2024/01/07 10:27:17;;;;;;;18.13;10.57;;;0.70;96.40;0.20;100957.00;;;;4905462;28;96702;-67
2024/01/07 10:29:43;;;;;;;17.10;13.23;;;0.50;96.20;0.30;100969.00;;;;4901914;28;123447;-68
2024/01/07 10:32:09;;;;;;;30.53;22.43;;;0.60;96.00;0.30;100961.00;;;;4905726;28;93195;-69
2024/01/07 10:34:36;;;;;;;11.53;8.33;;;0.70;95.90;0.50;100964.00;;;;4904758;28;108176;-69
2024/01/07 10:37:04;;;;;;;60.90;37.70;;;0.70;96.00;0.60;100971.00;;;;4911114;28;110438;-68